Active — NRTF — position and weather

sailwx.info

Track history (hours):
 
Tides and Currents Weather Stations Pressure Air Temp Water Temp Dewpoint Dewpoint Depression Visibility Wind Speed Wind Dir Waves Ship Positions

Active

Last reported at 2017-Sep-14 09:25 UTC. Time now 2017-Sep-23 16:20 UTC.
Position N 32°39' W 118°16'.
Warning: this ship's position is 9 days out of date.

Type: SAR. MMSI: 367269000.

Date/timePositionNaut miles runAvg speedWind from/ knotsBaromVisibWave heightAir tempDewpointWater temp
2017-Sep-14 09:25N 32°39' W 118°16'512.5
2017-Sep-14 09:00N 32°42' W 118°11'612.0
2017-Sep-14 08:30N 32°47' W 118°07'612.5
2017-Sep-14 08:00N 32°53' W 118°05'612.5
2017-Sep-14 07:30N 32°58' W 118°02'612.5
2017-Sep-14 07:00N 33°04' W 117°60'611.5
2017-Sep-14 06:30N 33°10' W 118°00'612.3
2017-Sep-14 06:00N 33°15' W 118°04'611.6
2017-Sep-14 05:29N 33°21' W 118°07'710.9
2017-Sep-14 04:52N 33°27' W 118°08'814.2
2017-Sep-14 04:18N 33°35' W 118°12'514.3
2017-Sep-14 03:56N 33°40' W 118°14'4 1.1
2017-Sep-14 00:14N 33°43' W 118°16'0 0.0
2017-Sep-13 21:24N 33°43' W 118°16'0 0.0
2017-Sep-13 17:39N 33°44' W 118°16'1 4.2
2017-Sep-13 17:28N 33°43' W 118°16'6 8.7
2017-Sep-13 16:47N 33°42' W 118°09'1 1.9
2017-Sep-13 16:14N 33°43' W 118°08'0 0.0
2017-Sep-13 07:32N 33°43' W 118°08'0 0.0
2017-Sep-13 06:32N 33°43' W 118°08'0 0.0
2017-Sep-13 06:30N 33°43' W 118°08'0 0.0
2017-Sep-13 05:00N 33°43' W 118°08'0 0.0
2017-Sep-13 04:24N 33°43' W 118°08'0 0.0
2017-Sep-13 04:00N 33°43' W 118°08'0 0.0
2017-Sep-13 03:30N 33°43' W 118°08'0 0.0
2017-Sep-13 03:00N 33°43' W 118°08'0 0.0
2017-Sep-13 02:30N 33°43' W 118°08'0 0.0
2017-Sep-13 02:00N 33°43' W 118°08'0 0.0
2017-Sep-13 01:29N 33°43' W 118°08'0 0.0
2017-Sep-13 00:59N 33°43' W 118°08'0 0.0
2017-Sep-13 00:27N 33°43' W 118°08'0 0.0
2017-Sep-12 23:59N 33°43' W 118°08'0 0.0
2017-Sep-12 23:29N 33°43' W 118°08'0 0.2
2017-Sep-12 23:00N 33°43' W 118°08'4 8.4
2017-Sep-12 22:30N 33°39' W 118°11'714.4
2017-Sep-12 22:00N 33°36' W 118°19'  
2017-Sep-07 09:24N 32°34' W 117°41'2 6.3
2017-Sep-07 09:00N 32°37' W 117°42'4 7.7
2017-Sep-07 08:30N 32°40' W 117°43'3 6.0
2017-Sep-07 08:00N 32°43' W 117°45'3 5.8
2017-Sep-07 07:30N 32°46' W 117°45'3 6.1
2017-Sep-07 07:00N 32°49' W 117°47'3 6.1
2017-Sep-07 06:30N 32°51' W 117°49'3 6.0
2017-Sep-07 06:00N 32°54' W 117°50'3 6.4
2017-Sep-07 05:30N 32°56' W 117°53'3 6.0
2017-Sep-07 05:00N 32°59' W 117°54'3 6.2
2017-Sep-07 04:30N 33°02' W 117°56'3 6.3
2017-Sep-07 04:00N 33°05' W 117°57'3 6.6
2017-Sep-07 03:30N 33°08' W 117°59'4 8.8
2017-Sep-07 03:00N 33°11' W 118°02'510.4
2017-Sep-07 02:30N 33°15' W 118°06'510.4
2017-Sep-07 02:00N 33°17' W 118°12'3 6.2
2017-Sep-07 01:30N 33°18' W 118°16'1 1.8
2017-Sep-07 01:00N 33°18' W 118°17'2 3.2
2017-Sep-07 00:30N 33°19' W 118°16'1 1.2
2017-Sep-07 00:00N 33°19' W 118°17'3 5.7
2017-Sep-06 23:30N 33°16' W 118°17'3 6.2
2017-Sep-06 23:00N 33°19' W 118°16'510.5
2017-Sep-06 22:30N 33°24' W 118°18'4 8.2
2017-Sep-06 22:01N 33°27' W 118°20'713.7
2017-Sep-06 21:30N 33°32' W 118°14'714.3
2017-Sep-06 21:00N 33°37' W 118°08'612.1
2017-Sep-06 20:30N 33°43' W 118°07'1 2.4
2017-Sep-06 19:57N 33°44' W 118°06'0 0.0
2017-Sep-06 19:29N 33°44' W 118°06'0 0.0
2017-Sep-06 18:59N 33°44' W 118°06'0 0.0
2017-Sep-06 18:29N 33°44' W 118°06'0 0.0
2017-Sep-06 17:59N 33°44' W 118°06'0 0.0
2017-Sep-06 17:30N 33°44' W 118°06'3 6.2
2017-Sep-06 17:00N 33°42' W 118°08'3 6.8
2017-Sep-06 16:30N 33°39' W 118°10'3 6.5
2017-Sep-06 16:00N 33°36' W 118°09'4 8.3
2017-Sep-06 15:30N 33°32' W 118°08'3 6.6
2017-Sep-06 15:00N 33°28' W 118°07'3 6.8
2017-Sep-06 14:30N 33°25' W 118°05'4 6.8
2017-Sep-06 13:59N 33°22' W 118°03'3 7.0
2017-Sep-06 13:30N 33°19' W 118°02'4 7.0
2017-Sep-06 13:00N 33°16' W 118°00'4 8.5
2017-Sep-06 12:30N 33°12' W 117°58'510.6
2017-Sep-06 12:00N 33°07' W 117°56'611.5
2017-Sep-06 11:30N 33°02' W 117°53'714.3
2017-Sep-06 11:01N 32°55' W 117°49'714.0
2017-Sep-06 10:31N 32°49' W 117°45'510.0
2017-Sep-06 10:01N 32°44' W 117°45'713.9
2017-Sep-06 09:30N 32°51' W 117°48'713.8
2017-Sep-06 09:01N 32°57' W 117°52'713.7
2017-Sep-06 08:30N 33°02' W 117°57'713.5
2017-Sep-06 08:00N 33°08' W 118°01'713.9
2017-Sep-06 07:30N 33°15' W 118°02'713.5
2017-Sep-06 07:01N 33°20' W 118°07'714.2
2017-Sep-06 06:30N 33°27' W 118°10'713.1
2017-Sep-06 06:00N 33°33' W 118°12'510.9
2017-Sep-06 05:30N 33°39' W 118°13'4 8.7
2017-Sep-06 05:00N 33°43' W 118°15'1 2.2
2017-Sep-06 04:29N 33°43' W 118°16'0 0.0
2017-Sep-06 03:59N 33°43' W 118°16'0 0.0
2017-Sep-06 03:26N 33°43' W 118°16'0 0.0
2017-Sep-06 02:59N 33°43' W 118°16'0 0.0
2017-Sep-06 02:26N 33°43' W 118°16'0 0.0
2017-Sep-06 01:56N 33°43' W 118°16'0 0.0
2017-Sep-06 01:26N 33°43' W 118°16'0 0.0
2017-Sep-06 00:59N 33°43' W 118°16'0 0.0
2017-Sep-06 00:23N 33°43' W 118°16'0 0.0
2017-Sep-05 23:59N 33°43' W 118°16'0 0.0
2017-Sep-05 23:26N 33°43' W 118°16'0 0.0
2017-Sep-05 22:58N 33°43' W 118°16'0 0.0
2017-Sep-05 22:28N 33°43' W 118°16'0 0.0
2017-Sep-05 21:50N 33°43' W 118°16'0 0.0
2017-Sep-05 21:29N 33°43' W 118°16'0 0.0
2017-Sep-05 20:56N 33°43' W 118°16'0 0.0
2017-Sep-05 20:26N 33°43' W 118°16'0 0.0
2017-Sep-05 18:38N 33°43' W 118°16'0 0.0
2017-Sep-05 18:19N 33°43' W 118°16'1 3.6
2017-Sep-05 17:56N 33°45' W 118°16'  
Track history (hours):
 
Tides and Currents Weather Stations Pressure Air Temp Water Temp Dewpoint Dewpoint Depression Visibility Wind Speed Wind Dir Waves Ship Positions

Active

Last reported at 2017-Sep-14 09:25 UTC. Time now 2017-Sep-23 16:20 UTC.
Position N 32°39' W 118°16'.
Warning: this ship's position is 9 days out of date.

Type: SAR. MMSI: 367269000.

Date/timePositionNaut miles runAvg speedWind from/ knotsBaromVisibWave heightAir tempDewpointWater temp
2017-Sep-14 09:25N 32°39' W 118°16'512.5
2017-Sep-14 09:00N 32°42' W 118°11'612.0
2017-Sep-14 08:30N 32°47' W 118°07'612.5
2017-Sep-14 08:00N 32°53' W 118°05'612.5
2017-Sep-14 07:30N 32°58' W 118°02'612.5
2017-Sep-14 07:00N 33°04' W 117°60'611.5
2017-Sep-14 06:30N 33°10' W 118°00'612.3
2017-Sep-14 06:00N 33°15' W 118°04'611.6
2017-Sep-14 05:29N 33°21' W 118°07'710.9
2017-Sep-14 04:52N 33°27' W 118°08'814.2
2017-Sep-14 04:18N 33°35' W 118°12'514.3
2017-Sep-14 03:56N 33°40' W 118°14'4 1.1
2017-Sep-14 00:14N 33°43' W 118°16'0 0.0
2017-Sep-13 21:24N 33°43' W 118°16'0 0.0
2017-Sep-13 17:39N 33°44' W 118°16'1 4.2
2017-Sep-13 17:28N 33°43' W 118°16'6 8.7
2017-Sep-13 16:47N 33°42' W 118°09'1 1.9
2017-Sep-13 16:14N 33°43' W 118°08'0 0.0
2017-Sep-13 07:32N 33°43' W 118°08'0 0.0
2017-Sep-13 06:32N 33°43' W 118°08'0 0.0
2017-Sep-13 06:30N 33°43' W 118°08'0 0.0
2017-Sep-13 05:00N 33°43' W 118°08'0 0.0
2017-Sep-13 04:24N 33°43' W 118°08'0 0.0
2017-Sep-13 04:00N 33°43' W 118°08'0 0.0
2017-Sep-13 03:30N 33°43' W 118°08'0 0.0
2017-Sep-13 03:00N 33°43' W 118°08'0 0.0
2017-Sep-13 02:30N 33°43' W 118°08'0 0.0
2017-Sep-13 02:00N 33°43' W 118°08'0 0.0
2017-Sep-13 01:29N 33°43' W 118°08'0 0.0
2017-Sep-13 00:59N 33°43' W 118°08'0 0.0
2017-Sep-13 00:27N 33°43' W 118°08'0 0.0
2017-Sep-12 23:59N 33°43' W 118°08'0 0.0
2017-Sep-12 23:29N 33°43' W 118°08'0 0.2
2017-Sep-12 23:00N 33°43' W 118°08'4 8.4
2017-Sep-12 22:30N 33°39' W 118°11'714.4
2017-Sep-12 22:00N 33°36' W 118°19'  
2017-Sep-07 09:24N 32°34' W 117°41'2 6.3
2017-Sep-07 09:00N 32°37' W 117°42'4 7.7
2017-Sep-07 08:30N 32°40' W 117°43'3 6.0
2017-Sep-07 08:00N 32°43' W 117°45'3 5.8
2017-Sep-07 07:30N 32°46' W 117°45'3 6.1
2017-Sep-07 07:00N 32°49' W 117°47'3 6.1
2017-Sep-07 06:30N 32°51' W 117°49'3 6.0
2017-Sep-07 06:00N 32°54' W 117°50'3 6.4
2017-Sep-07 05:30N 32°56' W 117°53'3 6.0
2017-Sep-07 05:00N 32°59' W 117°54'3 6.2
2017-Sep-07 04:30N 33°02' W 117°56'3 6.3
2017-Sep-07 04:00N 33°05' W 117°57'3 6.6
2017-Sep-07 03:30N 33°08' W 117°59'4 8.8
2017-Sep-07 03:00N 33°11' W 118°02'510.4
2017-Sep-07 02:30N 33°15' W 118°06'510.4
2017-Sep-07 02:00N 33°17' W 118°12'3 6.2
2017-Sep-07 01:30N 33°18' W 118°16'1 1.8
2017-Sep-07 01:00N 33°18' W 118°17'2 3.2
2017-Sep-07 00:30N 33°19' W 118°16'1 1.2
2017-Sep-07 00:00N 33°19' W 118°17'3 5.7
2017-Sep-06 23:30N 33°16' W 118°17'3 6.2
2017-Sep-06 23:00N 33°19' W 118°16'510.5
2017-Sep-06 22:30N 33°24' W 118°18'4 8.2
2017-Sep-06 22:01N 33°27' W 118°20'713.7
2017-Sep-06 21:30N 33°32' W 118°14'714.3
2017-Sep-06 21:00N 33°37' W 118°08'612.1
2017-Sep-06 20:30N 33°43' W 118°07'1 2.4
2017-Sep-06 19:57N 33°44' W 118°06'0 0.0
2017-Sep-06 19:29N 33°44' W 118°06'0 0.0
2017-Sep-06 18:59N 33°44' W 118°06'0 0.0
2017-Sep-06 18:29N 33°44' W 118°06'0 0.0
2017-Sep-06 17:59N 33°44' W 118°06'0 0.0
2017-Sep-06 17:30N 33°44' W 118°06'3 6.2
2017-Sep-06 17:00N 33°42' W 118°08'3 6.8
2017-Sep-06 16:30N 33°39' W 118°10'3 6.5
2017-Sep-06 16:00N 33°36' W 118°09'4 8.3
2017-Sep-06 15:30N 33°32' W 118°08'3 6.6
2017-Sep-06 15:00N 33°28' W 118°07'3 6.8
2017-Sep-06 14:30N 33°25' W 118°05'4 6.8
2017-Sep-06 13:59N 33°22' W 118°03'3 7.0
2017-Sep-06 13:30N 33°19' W 118°02'4 7.0
2017-Sep-06 13:00N 33°16' W 118°00'4 8.5
2017-Sep-06 12:30N 33°12' W 117°58'510.6
2017-Sep-06 12:00N 33°07' W 117°56'611.5
2017-Sep-06 11:30N 33°02' W 117°53'714.3
2017-Sep-06 11:01N 32°55' W 117°49'714.0
2017-Sep-06 10:31N 32°49' W 117°45'510.0
2017-Sep-06 10:01N 32°44' W 117°45'713.9
2017-Sep-06 09:30N 32°51' W 117°48'713.8
2017-Sep-06 09:01N 32°57' W 117°52'713.7
2017-Sep-06 08:30N 33°02' W 117°57'713.5
2017-Sep-06 08:00N 33°08' W 118°01'713.9
2017-Sep-06 07:30N 33°15' W 118°02'713.5
2017-Sep-06 07:01N 33°20' W 118°07'714.2
2017-Sep-06 06:30N 33°27' W 118°10'713.1
2017-Sep-06 06:00N 33°33' W 118°12'510.9
2017-Sep-06 05:30N 33°39' W 118°13'4 8.7
2017-Sep-06 05:00N 33°43' W 118°15'1 2.2
2017-Sep-06 04:29N 33°43' W 118°16'0 0.0
2017-Sep-06 03:59N 33°43' W 118°16'0 0.0
2017-Sep-06 03:26N 33°43' W 118°16'0 0.0
2017-Sep-06 02:59N 33°43' W 118°16'0 0.0
2017-Sep-06 02:26N 33°43' W 118°16'0 0.0
2017-Sep-06 01:56N 33°43' W 118°16'0 0.0
2017-Sep-06 01:26N 33°43' W 118°16'0 0.0
2017-Sep-06 00:59N 33°43' W 118°16'0 0.0
2017-Sep-06 00:23N 33°43' W 118°16'0 0.0
2017-Sep-05 23:59N 33°43' W 118°16'0 0.0
2017-Sep-05 23:26N 33°43' W 118°16'0 0.0
2017-Sep-05 22:58N 33°43' W 118°16'0 0.0
2017-Sep-05 22:28N 33°43' W 118°16'0 0.0
2017-Sep-05 21:50N 33°43' W 118°16'0 0.0
2017-Sep-05 21:29N 33°43' W 118°16'0 0.0
2017-Sep-05 20:56N 33°43' W 118°16'0 0.0
2017-Sep-05 20:26N 33°43' W 118°16'0 0.0
2017-Sep-05 18:38N 33°43' W 118°16'0 0.0
2017-Sep-05 18:19N 33°43' W 118°16'1 3.6
2017-Sep-05 17:56N 33°45' W 118°16'  

Dump ship's entire track history